createdAt,value
2023-04-20T00:00:49.834Z,31.36
2023-04-20T00:01:49.906Z,31.37
2023-04-20T00:02:50.109Z,31.39
2023-04-20T00:03:50.161Z,31.39
2023-04-20T00:04:50.065Z,31.39
2023-04-20T00:05:50.131Z,31.33
2023-04-20T00:06:50.192Z,31.32
2023-04-20T00:07:50.235Z,31.30
2023-04-20T00:08:50.292Z,31.30
2023-04-20T00:09:50.343Z,31.30
2023-04-20T00:10:50.423Z,31.24
2023-04-20T00:11:50.435Z,31.33
2023-04-20T00:12:50.496Z,31.33
2023-04-20T00:13:50.544Z,31.23
2023-04-20T00:14:50.591Z,31.27
2023-04-20T00:15:50.638Z,31.27
2023-04-20T00:16:50.710Z,31.26
2023-04-20T00:17:50.757Z,31.24
2023-04-20T00:18:50.740Z,31.25
2023-04-20T00:19:50.736Z,31.27
2023-04-20T00:20:50.741Z,31.28
2023-04-20T00:21:50.782Z,31.27
2023-04-20T00:22:50.765Z,31.24
2023-04-20T00:23:50.765Z,31.18
2023-04-20T00:24:50.769Z,31.25
2023-04-20T00:25:50.774Z,31.24
2023-04-20T00:26:50.827Z,31.21
2023-04-20T00:27:50.795Z,31.19
2023-04-20T00:28:50.822Z,31.27
2023-04-20T00:29:50.807Z,31.28
2023-04-20T00:30:50.841Z,31.25
2023-04-20T00:31:50.811Z,31.23
2023-04-20T00:32:50.890Z,31.23
2023-04-20T00:33:50.840Z,31.20
2023-04-20T00:34:50.894Z,31.17
2023-04-20T00:35:50.935Z,31.19
2023-04-20T00:36:50.963Z,31.27
2023-04-20T00:37:50.980Z,31.19
2023-04-20T00:38:50.990Z,31.21
2023-04-20T00:39:50.982Z,31.18
2023-04-20T00:40:51.005Z,31.19
2023-04-20T00:41:51.014Z,31.23
2023-04-20T00:42:51.231Z,31.16
2023-04-20T00:43:51.029Z,31.19
2023-04-20T00:44:51.007Z,31.14
2023-04-20T00:45:51.054Z,31.17
2023-04-20T00:46:51.005Z,31.15
2023-04-20T00:47:51.084Z,31.17
2023-04-20T00:48:51.044Z,31.20
2023-04-20T00:49:51.045Z,31.12
2023-04-20T00:50:51.056Z,31.16
2023-04-20T00:51:51.042Z,31.21
2023-04-20T00:52:51.059Z,31.15
2023-04-20T00:53:51.139Z,31.16
2023-04-20T00:54:51.169Z,31.12
2023-04-20T00:55:51.230Z,31.12
2023-04-20T00:56:51.312Z,31.11
2023-04-20T00:57:51.319Z,31.11
2023-04-20T00:58:51.354Z,31.11
2023-04-20T00:59:51.322Z,31.17
2023-04-20T01:00:51.311Z,31.11
2023-04-20T01:01:51.349Z,31.05
2023-04-20T01:02:51.418Z,31.07
2023-04-20T01:03:51.436Z,31.02
2023-04-20T01:04:51.357Z,31.08
2023-04-20T01:05:51.362Z,31.07
2023-04-20T01:06:51.366Z,31.05
2023-04-20T01:07:51.381Z,31.02
2023-04-20T01:08:51.393Z,31.05
2023-04-20T01:09:52.174Z,31.02
2023-04-20T01:10:51.378Z,31.09
2023-04-20T01:11:51.401Z,31.02
2023-04-20T01:12:51.443Z,31.02
2023-04-20T01:13:51.492Z,31.04
2023-04-20T01:14:51.553Z,31.02
2023-04-20T01:15:51.555Z,31.04
2023-04-20T01:16:51.522Z,31.02
2023-04-20T01:17:51.564Z,31.02
2023-04-20T01:18:51.536Z,31.05
2023-04-20T01:19:51.539Z,31.04
2023-04-20T01:20:51.546Z,30.96
2023-04-20T01:21:51.552Z,30.98
2023-04-20T01:22:51.557Z,31.01
2023-04-20T01:23:51.549Z,31.00
2023-04-20T01:24:51.542Z,31.01
2023-04-20T01:25:51.558Z,31.00
2023-04-20T01:26:51.593Z,31.00
2023-04-20T01:27:51.598Z,31.01
2023-04-20T01:28:51.603Z,30.98
2023-04-20T01:29:51.606Z,31.01
2023-04-20T01:30:51.681Z,31.01
2023-04-20T01:31:51.775Z,30.96
2023-04-20T01:32:51.763Z,30.95
2023-04-20T01:33:51.793Z,31.01
2023-04-20T01:34:51.841Z,30.98
2023-04-20T01:35:51.874Z,30.98
2023-04-20T01:36:51.909Z,31.01
2023-04-20T01:37:51.921Z,31.01
2023-04-20T01:38:51.904Z,30.95
2023-04-20T01:39:51.941Z,30.95
2023-04-20T01:40:51.916Z,30.94
2023-04-20T01:41:51.925Z,30.88
2023-04-20T01:42:51.933Z,30.95
2023-04-20T01:43:51.945Z,30.98
2023-04-20T01:44:51.928Z,30.95
2023-04-20T01:45:51.940Z,30.95
2023-04-20T01:46:51.980Z,30.98
2023-04-20T01:47:52.017Z,30.96
2023-04-20T01:48:52.041Z,31.00
2023-04-20T01:49:52.102Z,30.95
2023-04-20T01:50:52.077Z,30.92
2023-04-20T01:51:52.145Z,30.94
2023-04-20T01:52:52.182Z,30.92
2023-04-20T01:53:52.247Z,30.92
2023-04-20T01:54:52.265Z,30.96
2023-04-20T01:55:52.270Z,30.92
2023-04-20T01:56:52.270Z,30.91
2023-04-20T01:57:52.279Z,30.91
2023-04-20T01:58:52.291Z,30.85
2023-04-20T01:59:52.278Z,30.88
2023-04-20T02:00:52.358Z,30.85
2023-04-20T02:01:52.431Z,30.91
2023-04-20T02:02:52.550Z,30.90
2023-04-20T02:03:52.807Z,30.88
2023-04-20T02:04:52.477Z,30.89
2023-04-20T02:05:52.470Z,30.88
2023-04-20T02:06:52.484Z,30.88
2023-04-20T02:07:52.456Z,30.84
2023-04-20T02:08:52.510Z,30.87
2023-04-20T02:09:52.595Z,30.88
2023-04-20T02:10:52.628Z,30.81
2023-04-20T02:11:52.617Z,30.84
2023-04-20T02:12:52.632Z,30.81
2023-04-20T02:13:52.631Z,30.81
2023-04-20T02:14:52.624Z,30.84
2023-04-20T02:15:52.641Z,30.80
2023-04-20T02:16:52.644Z,30.82
2023-04-20T02:17:53.078Z,30.80
2023-04-20T02:18:52.670Z,30.80
2023-04-20T02:19:52.627Z,30.81
2023-04-20T02:20:52.643Z,30.81
2023-04-20T02:21:52.629Z,30.78
2023-04-20T02:22:52.652Z,30.78
2023-04-20T02:23:52.623Z,30.75
2023-04-20T02:24:52.643Z,30.75
2023-04-20T02:25:52.638Z,30.80
2023-04-20T02:26:52.635Z,30.74
2023-04-20T02:27:52.634Z,30.72
2023-04-20T02:28:52.659Z,30.73
2023-04-20T02:29:52.643Z,30.73
2023-04-20T02:30:52.754Z,30.71
2023-04-20T02:31:52.648Z,30.77
2023-04-20T02:32:52.741Z,30.75
2023-04-20T02:33:52.649Z,30.75
2023-04-20T02:34:52.690Z,30.77
2023-04-20T02:35:52.661Z,30.73
2023-04-20T02:36:52.654Z,30.74
2023-04-20T02:37:52.669Z,30.75
2023-04-20T02:38:52.661Z,30.75
2023-04-20T02:39:52.661Z,30.72
2023-04-20T02:40:52.738Z,30.73
2023-04-20T02:41:52.750Z,30.68
2023-04-20T02:42:52.746Z,30.73
2023-04-20T02:43:52.749Z,30.68
2023-04-20T02:44:52.851Z,30.70
2023-04-20T02:45:52.827Z,30.72
2023-04-20T02:46:52.932Z,30.71
2023-04-20T02:47:52.877Z,30.69
2023-04-20T02:48:52.832Z,30.71
2023-04-20T02:49:52.835Z,30.68
2023-04-20T02:50:52.877Z,30.70
2023-04-20T02:51:52.844Z,30.63
2023-04-20T02:52:52.853Z,30.65
2023-04-20T02:53:52.841Z,30.72
2023-04-20T02:54:52.867Z,30.68
2023-04-20T02:55:52.946Z,30.65
2023-04-20T02:56:53.000Z,30.64
2023-04-20T02:57:53.048Z,30.64
2023-04-20T02:58:53.124Z,30.59
2023-04-20T02:59:53.183Z,30.56
2023-04-20T03:00:53.237Z,30.62
2023-04-20T03:01:53.353Z,30.61
2023-04-20T03:02:53.406Z,30.58
2023-04-20T03:03:53.609Z,30.56
2023-04-20T03:04:53.428Z,30.61
2023-04-20T03:05:53.313Z,30.63
2023-04-20T03:06:53.326Z,30.62
2023-04-20T03:07:53.303Z,30.63
2023-04-20T03:08:53.312Z,30.59
2023-04-20T03:09:53.330Z,30.52
2023-04-20T03:10:53.325Z,30.54
2023-04-20T03:11:53.326Z,30.54
2023-04-20T03:12:53.326Z,30.58
2023-04-20T03:13:53.338Z,30.54
2023-04-20T03:14:53.376Z,30.57
2023-04-20T03:15:53.440Z,30.57
2023-04-20T03:16:53.534Z,30.48
2023-04-20T03:17:53.505Z,30.54
2023-04-20T03:18:53.469Z,30.54
2023-04-20T03:19:53.478Z,30.55
2023-04-20T03:20:53.485Z,30.53
2023-04-20T03:21:53.484Z,30.57
2023-04-20T03:22:53.554Z,30.51
2023-04-20T03:23:53.491Z,30.54
2023-04-20T03:24:53.788Z,30.52
2023-04-20T03:25:53.501Z,30.49
2023-04-20T03:26:53.499Z,30.52
2023-04-20T03:27:53.531Z,30.52
2023-04-20T03:28:53.560Z,30.49
2023-04-20T03:29:53.538Z,30.51
2023-04-20T03:30:53.555Z,30.51
2023-04-20T03:31:53.591Z,30.49
2023-04-20T03:32:53.669Z,30.52
2023-04-20T03:33:53.533Z,30.48
2023-04-20T03:34:53.540Z,30.51
2023-04-20T03:35:53.535Z,30.51
2023-04-20T03:36:53.539Z,30.52
2023-04-20T03:37:53.539Z,30.55
2023-04-20T03:38:53.552Z,30.51
2023-04-20T03:39:53.571Z,30.52
2023-04-20T03:40:53.628Z,30.59
2023-04-20T03:41:53.677Z,30.54
2023-04-20T03:42:53.727Z,30.58
2023-04-20T03:43:54.275Z,30.55
2023-04-20T03:44:53.753Z,30.52
2023-04-20T03:45:53.797Z,30.54
2023-04-20T03:46:53.772Z,30.54
2023-04-20T03:47:53.814Z,30.56
2023-04-20T03:48:53.772Z,30.54
2023-04-20T03:49:53.839Z,30.52
2023-04-20T03:50:53.774Z,30.52
2023-04-20T03:51:53.772Z,30.55
2023-04-20T03:52:53.809Z,30.56
2023-04-20T03:53:53.856Z,30.51
2023-04-20T03:54:53.941Z,30.55
2023-04-20T03:55:53.973Z,30.55
2023-04-20T03:56:53.999Z,30.55
2023-04-20T03:57:54.023Z,30.56
2023-04-20T03:58:53.990Z,30.54
2023-04-20T03:59:54.050Z,30.53
2023-04-20T04:00:54.084Z,30.49
2023-04-20T04:01:54.179Z,30.48
2023-04-20T04:02:54.352Z,30.52
2023-04-20T04:03:54.563Z,30.51
2023-04-20T04:04:54.355Z,30.49
2023-04-20T04:05:54.270Z,30.48
2023-04-20T04:06:54.295Z,30.52
2023-04-20T04:07:54.328Z,30.44
2023-04-20T04:08:54.355Z,30.44
2023-04-20T04:09:54.365Z,30.46
2023-04-20T04:10:54.434Z,30.58
2023-04-20T04:11:54.437Z,30.49
2023-04-20T04:12:54.486Z,30.49
2023-04-20T04:13:54.463Z,30.53
2023-04-20T04:14:54.464Z,30.49
2023-04-20T04:15:54.468Z,30.48
2023-04-20T04:16:54.515Z,30.45
2023-04-20T04:17:54.550Z,30.41
2023-04-20T04:18:54.505Z,30.42
2023-04-20T04:19:54.524Z,30.42
2023-04-20T04:20:54.595Z,30.45
2023-04-20T04:21:54.617Z,30.44
2023-04-20T04:22:54.627Z,30.45
2023-04-20T04:23:54.644Z,30.49
2023-04-20T04:24:54.722Z,30.42
2023-04-20T04:25:54.769Z,30.44
2023-04-20T04:26:54.763Z,30.40
2023-04-20T04:27:54.727Z,30.38
2023-04-20T04:28:54.731Z,30.45
2023-04-20T04:29:54.718Z,30.41
2023-04-20T04:30:54.771Z,30.42
2023-04-20T04:31:54.884Z,30.42
2023-04-20T04:32:54.952Z,30.41
2023-04-20T04:33:54.935Z,30.41
2023-04-20T04:34:55.006Z,30.36
2023-04-20T04:35:55.108Z,30.41
2023-04-20T04:36:55.019Z,30.37
2023-04-20T04:37:55.034Z,30.37
2023-04-20T04:38:55.086Z,30.33
2023-04-20T04:39:55.120Z,30.32
2023-04-20T04:40:55.146Z,30.32
2023-04-20T04:41:55.154Z,30.34
2023-04-20T04:42:55.233Z,30.31
2023-04-20T04:43:55.155Z,30.37
2023-04-20T04:44:55.151Z,30.40
2023-04-20T04:45:55.198Z,30.38
2023-04-20T04:46:55.146Z,30.38
2023-04-20T04:47:55.153Z,30.34
2023-04-20T04:48:55.165Z,30.31
2023-04-20T04:49:55.146Z,30.35
2023-04-20T04:50:55.155Z,30.34
2023-04-20T04:51:55.134Z,30.32
2023-04-20T04:52:55.131Z,30.34
2023-04-20T04:53:55.133Z,30.29
2023-04-20T04:54:55.145Z,30.33
2023-04-20T04:55:55.123Z,30.35
2023-04-20T04:56:55.130Z,30.32
2023-04-20T04:57:55.122Z,30.34
2023-04-20T04:58:55.143Z,30.31
2023-04-20T04:59:55.110Z,30.31
2023-04-20T05:00:55.104Z,30.27
2023-04-20T05:01:55.189Z,30.29
2023-04-20T05:02:55.326Z,30.34
2023-04-20T05:03:55.368Z,30.28
2023-04-20T05:04:55.262Z,30.29
2023-04-20T05:05:55.235Z,30.27
2023-04-20T05:06:55.216Z,30.26
2023-04-20T05:07:55.213Z,30.24
2023-04-20T05:08:55.214Z,30.25
2023-04-20T05:09:55.215Z,30.25
2023-04-20T05:10:55.223Z,30.22
2023-04-20T05:11:55.217Z,30.25
2023-04-20T05:12:55.219Z,30.22
2023-04-20T05:13:55.278Z,30.18
2023-04-20T05:14:55.233Z,30.18
2023-04-20T05:15:55.320Z,30.25
2023-04-20T05:16:55.225Z,30.18
2023-04-20T05:17:55.272Z,30.24
2023-04-20T05:18:55.224Z,30.22
2023-04-20T05:19:55.232Z,30.21
2023-04-20T05:20:55.241Z,30.22
2023-04-20T05:21:55.223Z,30.27
2023-04-20T05:22:55.224Z,30.29
2023-04-20T05:23:55.288Z,30.29
2023-04-20T05:24:55.228Z,30.32
2023-04-20T05:25:55.212Z,30.29
2023-04-20T05:26:55.219Z,30.27
2023-04-20T05:27:55.224Z,30.33
2023-04-20T05:28:55.221Z,30.31
2023-04-20T05:29:55.217Z,30.26
2023-04-20T05:30:55.374Z,30.31
2023-04-20T05:31:55.278Z,30.30
2023-04-20T05:32:55.310Z,30.24
2023-04-20T05:33:55.292Z,30.29
2023-04-20T05:34:55.277Z,30.24
2023-04-20T05:35:55.795Z,30.39
2023-04-20T05:36:55.356Z,30.46
2023-04-20T05:37:55.391Z,30.37
2023-04-20T05:38:55.430Z,30.45
2023-04-20T05:39:55.448Z,30.40
2023-04-20T05:40:55.482Z,30.42
2023-04-20T05:41:55.799Z,30.48
2023-04-20T05:42:55.582Z,30.53
2023-04-20T05:43:55.639Z,30.52
2023-04-20T05:44:55.688Z,30.56
2023-04-20T05:45:55.796Z,30.56
2023-04-20T05:46:55.913Z,30.62
2023-04-20T05:47:55.835Z,30.59
2023-04-20T05:48:56.317Z,30.60
2023-04-20T05:49:55.919Z,30.62
2023-04-20T05:50:56.033Z,30.69
2023-04-20T05:51:56.048Z,30.67
2023-04-20T05:52:56.154Z,30.59
2023-04-20T05:53:56.318Z,30.64
2023-04-20T05:54:56.206Z,29.58
2023-04-20T05:55:56.243Z,27.30
2023-04-20T05:56:56.279Z,26.49
2023-04-20T05:57:56.311Z,26.30
2023-04-20T05:58:57.854Z,26.60
2023-04-20T05:59:57.452Z,26.75
2023-04-20T06:00:56.487Z,26.76
2023-04-20T06:01:59.742Z,26.24
2023-04-20T06:02:57.972Z,26.30
2023-04-20T06:03:57.054Z,26.45
2023-04-20T06:04:57.068Z,26.50
2023-04-20T06:05:57.815Z,26.51
2023-04-20T06:06:59.987Z,26.48
2023-04-20T06:07:57.000Z,26.49
2023-04-20T06:08:56.849Z,26.48
2023-04-20T06:09:56.790Z,26.40
2023-04-20T06:10:56.788Z,26.40
2023-04-20T06:11:56.862Z,26.36
2023-04-20T06:12:56.785Z,26.36
2023-04-20T06:13:57.844Z,26.36
2023-04-20T06:14:56.770Z,26.30
2023-04-20T06:15:56.900Z,26.28
2023-04-20T06:16:56.725Z,26.30
2023-04-20T06:17:56.871Z,26.24
2023-04-20T06:18:56.858Z,26.25
2023-04-20T06:19:56.769Z,26.21
2023-04-20T06:20:56.790Z,26.29
2023-04-20T06:21:57.501Z,26.28
2023-04-20T06:22:56.829Z,26.28
2023-04-20T06:23:56.842Z,26.21
2023-04-20T06:24:56.836Z,26.25
2023-04-20T06:25:56.829Z,26.20
2023-04-20T06:26:56.813Z,26.23
2023-04-20T06:27:56.804Z,26.22
2023-04-20T06:28:56.832Z,26.23
2023-04-20T06:29:56.801Z,26.28
2023-04-20T06:30:57.769Z,26.28
2023-04-20T06:31:56.875Z,26.32
2023-04-20T06:33:12.581Z,26.38
2023-04-20T06:33:56.848Z,26.38
2023-04-20T06:34:56.769Z,26.36
2023-04-20T06:35:56.793Z,26.32
2023-04-20T06:36:56.858Z,26.36
2023-04-20T06:37:56.754Z,26.36
2023-04-20T06:38:56.746Z,26.42
2023-04-20T06:39:56.745Z,26.43
2023-04-20T06:40:56.750Z,26.43
2023-04-20T06:42:00.110Z,26.41
2023-04-20T06:42:56.730Z,26.47
2023-04-20T06:43:56.857Z,26.52
2023-04-20T06:44:56.874Z,26.59
2023-04-20T06:45:56.707Z,26.61
2023-04-20T06:46:56.747Z,26.53
2023-04-20T06:47:56.749Z,26.53
2023-04-20T06:48:56.873Z,26.57
2023-04-20T06:49:56.691Z,26.56
2023-04-20T06:50:59.946Z,26.50
2023-04-20T06:51:56.683Z,26.57
2023-04-20T06:53:12.271Z,26.51
2023-04-20T06:53:56.918Z,26.56
2023-04-20T06:54:56.636Z,26.55
2023-04-20T06:55:56.649Z,26.57
2023-04-20T06:56:56.646Z,26.55
2023-04-20T06:57:57.426Z,26.62
2023-04-20T06:58:56.906Z,26.60
2023-04-20T06:59:56.625Z,26.62
2023-04-20T07:00:56.566Z,26.63
2023-04-20T07:01:56.835Z,26.76
2023-04-20T07:02:56.673Z,26.70
2023-04-20T07:03:56.747Z,26.79
2023-04-20T07:04:56.618Z,26.81
2023-04-20T07:05:56.534Z,26.83
2023-04-20T07:07:00.072Z,26.82
2023-04-20T07:07:56.535Z,26.89
2023-04-20T07:09:00.053Z,26.93
2023-04-20T07:09:56.567Z,26.95
2023-04-20T07:10:57.565Z,26.94
2023-04-20T07:11:56.552Z,26.90
2023-04-20T07:12:57.571Z,26.89
2023-04-20T07:13:56.858Z,26.95
2023-04-20T07:14:56.531Z,26.91
2023-04-20T07:15:56.555Z,26.84
2023-04-20T07:16:56.914Z,26.85
2023-04-20T07:17:56.517Z,26.80
2023-04-20T07:18:56.865Z,26.81
2023-04-20T07:19:56.910Z,26.82
2023-04-20T07:20:56.515Z,26.79
2023-04-20T07:21:56.487Z,26.77
2023-04-20T07:22:56.482Z,26.78
2023-04-20T07:23:56.931Z,26.73
2023-04-20T07:24:56.473Z,26.74
2023-04-20T07:25:56.441Z,26.72
2023-04-20T07:26:56.846Z,26.68
2023-04-20T07:27:56.433Z,26.58
2023-04-20T07:28:56.427Z,26.59
2023-04-20T07:29:56.463Z,26.67
2023-04-20T07:30:56.458Z,26.66
2023-04-20T07:31:56.893Z,26.57
2023-04-20T07:32:56.561Z,26.59
2023-04-20T07:33:56.878Z,26.62
2023-04-20T07:34:56.641Z,26.66
2023-04-20T07:35:56.658Z,26.63
2023-04-20T07:36:56.734Z,26.59
2023-04-20T07:37:56.781Z,26.65
2023-04-20T07:38:56.883Z,26.85
2023-04-20T07:39:56.929Z,27.15
2023-04-20T07:40:57.006Z,27.38
2023-04-20T07:41:57.075Z,27.56
2023-04-20T07:42:57.382Z,27.70
2023-04-20T07:43:57.167Z,27.76
2023-04-20T07:44:57.185Z,27.85
2023-04-20T07:45:57.249Z,27.96
2023-04-20T07:46:57.261Z,28.00
2023-04-20T07:47:57.565Z,28.07
2023-04-20T07:48:57.346Z,28.30
2023-04-20T07:49:57.371Z,28.30
2023-04-20T07:50:57.431Z,28.51
2023-04-20T07:52:09.199Z,28.60
2023-04-20T07:52:57.918Z,28.82
2023-04-20T07:53:57.877Z,28.83
2023-04-20T07:54:57.410Z,28.88
2023-04-20T07:55:57.395Z,28.95
2023-04-20T07:56:57.391Z,29.14
2023-04-20T07:57:57.488Z,29.22
2023-04-20T07:58:57.363Z,29.37
2023-04-20T07:59:57.348Z,29.50
2023-04-20T08:00:57.377Z,29.62
2023-04-20T08:01:57.350Z,29.66
2023-04-20T08:02:57.428Z,29.72
2023-04-20T08:03:57.656Z,29.77
2023-04-20T08:04:57.493Z,29.83
2023-04-20T08:05:57.536Z,30.02
2023-04-20T08:06:57.291Z,30.00
2023-04-20T08:07:57.357Z,30.06
2023-04-20T08:08:57.671Z,30.16
2023-04-20T08:09:57.289Z,30.22
2023-04-20T08:10:57.268Z,30.40
2023-04-20T08:11:57.606Z,30.54
2023-04-20T08:12:57.270Z,30.58
2023-04-20T08:13:58.519Z,30.63
2023-04-20T08:14:57.249Z,30.68
2023-04-20T08:15:57.290Z,30.78
2023-04-20T08:16:57.260Z,30.87
2023-04-20T08:17:57.342Z,30.90
2023-04-20T08:18:57.857Z,31.06
2023-04-20T08:19:57.419Z,31.27
2023-04-20T08:20:57.476Z,31.25
2023-04-20T08:21:57.533Z,31.36
2023-04-20T08:22:57.612Z,31.48
2023-04-20T08:23:57.858Z,31.50
2023-04-20T08:24:57.699Z,31.65
2023-04-20T08:25:57.678Z,31.65
2023-04-20T08:26:57.694Z,31.86
2023-04-20T08:27:57.734Z,31.94
2023-04-20T08:28:57.876Z,32.01
2023-04-20T08:29:57.822Z,32.02
2023-04-20T08:30:57.892Z,32.00
2023-04-20T08:31:58.016Z,31.99
2023-04-20T08:32:57.965Z,32.02
2023-04-20T08:33:58.366Z,32.22
2023-04-20T08:34:58.053Z,32.14
2023-04-20T08:35:58.060Z,32.16
2023-04-20T08:36:58.086Z,32.16
2023-04-20T08:37:58.131Z,32.23
2023-04-20T08:38:58.382Z,32.25
2023-04-20T08:39:58.206Z,32.38
2023-04-20T08:40:58.465Z,32.42
2023-04-20T08:41:58.297Z,32.32
2023-04-20T08:42:58.366Z,32.31
2023-04-20T08:43:58.879Z,32.32
2023-04-20T08:44:58.427Z,31.56
2023-04-20T08:45:58.486Z,31.34
2023-04-20T08:46:58.640Z,31.27
2023-04-20T08:47:58.937Z,31.48
2023-04-20T08:48:58.640Z,31.34
2023-04-20T08:49:58.697Z,31.11
2023-04-20T08:50:58.748Z,31.05
2023-04-20T08:52:01.361Z,31.14
2023-04-20T08:52:58.874Z,31.21
2023-04-20T08:53:58.761Z,31.32
2023-04-20T08:54:58.764Z,31.51
2023-04-20T08:55:58.742Z,31.67
2023-04-20T08:56:58.899Z,31.86
2023-04-20T08:57:58.733Z,31.94
2023-04-20T08:58:58.878Z,31.97
2023-04-20T08:59:59.382Z,32.10
2023-04-20T09:00:58.723Z,32.17
2023-04-20T09:01:58.830Z,32.34
2023-04-20T09:02:58.954Z,32.17
2023-04-20T09:03:58.778Z,32.13
2023-04-20T09:04:58.912Z,31.90
2023-04-20T09:05:58.680Z,31.82
2023-04-20T09:06:58.675Z,31.70
2023-04-20T09:07:58.668Z,31.80
2023-04-20T09:08:58.675Z,31.62
2023-04-20T09:09:58.887Z,31.55
2023-04-20T09:10:58.645Z,31.14
2023-04-20T09:11:58.645Z,31.35
2023-04-20T09:12:58.672Z,31.48
2023-04-20T09:13:58.625Z,31.39
2023-04-20T09:14:58.880Z,31.23
2023-04-20T09:15:58.641Z,31.06
2023-04-20T09:16:58.607Z,30.82
2023-04-20T09:17:58.659Z,30.62
2023-04-20T09:18:58.673Z,30.43
2023-04-20T09:19:58.880Z,30.30
2023-04-20T09:20:58.670Z,30.35
2023-04-20T09:21:58.883Z,30.13
2023-04-20T09:22:58.738Z,30.12
2023-04-20T09:23:58.778Z,30.19
2023-04-20T09:24:58.875Z,30.09
2023-04-20T09:25:58.803Z,29.83
2023-04-20T09:26:58.815Z,29.77
2023-04-20T09:27:58.861Z,29.80
2023-04-20T09:28:58.928Z,29.79
2023-04-20T09:29:59.414Z,29.76
2023-04-20T09:30:58.983Z,29.84
2023-04-20T09:31:59.038Z,30.00
2023-04-20T09:32:59.100Z,30.03
2023-04-20T09:33:59.192Z,30.13
2023-04-20T09:34:59.906Z,30.20
2023-04-20T09:35:59.263Z,30.30
2023-04-20T09:36:59.311Z,30.39
2023-04-20T09:37:59.399Z,30.46
2023-04-20T09:39:03.077Z,30.49
2023-04-20T09:39:59.971Z,30.61
2023-04-20T09:40:59.424Z,30.66
2023-04-20T09:42:03.387Z,30.77
2023-04-20T09:43:07.571Z,30.79
2023-04-20T09:43:59.389Z,30.84
2023-04-20T09:45:00.048Z,30.91
2023-04-20T09:46:10.917Z,30.92
2023-04-20T09:46:59.362Z,31.00
2023-04-20T09:48:02.412Z,31.06
2023-04-20T09:48:59.366Z,31.11
2023-04-20T09:50:14.016Z,31.24
2023-04-20T09:52:17.618Z,31.45
2023-04-20T09:53:18.681Z,31.54
2023-04-20T09:54:18.806Z,31.47
2023-04-20T09:55:18.427Z,31.53
2023-04-20T09:56:19.399Z,31.81
2023-04-20T09:57:18.437Z,31.71
2023-04-20T09:58:18.440Z,31.85
2023-04-20T09:59:18.386Z,31.95
2023-04-20T10:00:18.466Z,32.05
2023-04-20T10:01:18.409Z,32.06
2023-04-20T10:02:25.253Z,32.12
2023-04-20T10:03:19.287Z,32.15
2023-04-20T10:04:19.804Z,32.21
2023-04-20T10:05:18.578Z,32.38
2023-04-20T10:06:18.583Z,32.52
2023-04-20T10:07:18.614Z,32.58
2023-04-20T10:08:19.106Z,32.51
2023-04-20T10:09:19.115Z,32.68
2023-04-20T10:10:18.644Z,32.74
2023-04-20T10:11:18.655Z,32.75
2023-04-20T10:12:18.674Z,32.87
2023-04-20T10:13:21.606Z,32.91
2023-04-20T10:14:19.389Z,32.92
2023-04-20T10:15:18.672Z,32.97
2023-04-20T10:16:18.923Z,33.20
2023-04-20T10:17:18.894Z,33.13
2023-04-20T10:18:18.753Z,33.44
2023-04-20T10:19:18.658Z,33.35
2023-04-20T10:20:19.120Z,33.47
2023-04-20T10:21:18.620Z,33.63
2023-04-20T10:22:18.636Z,33.68
2023-04-20T10:23:18.828Z,33.86
2023-04-20T10:24:20.409Z,33.97
2023-04-20T10:25:18.610Z,33.95
2023-04-20T10:26:19.586Z,34.08
2023-04-20T10:27:18.597Z,34.15
2023-04-20T10:28:18.578Z,34.25
2023-04-20T10:29:18.638Z,34.26
2023-04-20T10:30:18.692Z,34.54
2023-04-20T10:31:18.659Z,34.58
2023-04-20T10:32:18.740Z,34.64
2023-04-20T10:33:18.576Z,34.78
2023-04-20T10:34:18.697Z,34.76
2023-04-20T10:35:18.534Z,34.65
2023-04-20T10:36:18.621Z,34.86
2023-04-20T10:37:18.520Z,35.02
2023-04-20T10:38:18.501Z,34.96
2023-04-20T10:39:19.780Z,35.05
2023-04-20T10:40:18.654Z,35.10
2023-04-20T10:41:18.507Z,35.15
2023-04-20T10:42:18.960Z,35.13
2023-04-20T10:43:18.733Z,35.38
2023-04-20T10:44:19.407Z,35.44
2023-04-20T10:45:19.118Z,35.47
2023-04-20T10:46:18.722Z,35.31
2023-04-20T10:47:18.455Z,35.43
2023-04-20T10:48:18.601Z,35.46
2023-04-20T10:49:18.732Z,35.63
2023-04-20T10:50:18.476Z,35.87
2023-04-20T10:51:18.523Z,36.02
2023-04-20T10:52:18.587Z,35.91
2023-04-20T10:53:18.646Z,35.95
2023-04-20T10:54:18.660Z,35.99
2023-04-20T10:55:19.133Z,36.17
2023-04-20T10:56:18.681Z,36.07
2023-04-20T10:57:18.673Z,36.23
2023-04-20T10:58:18.682Z,36.37
2023-04-20T10:59:18.955Z,36.32
2023-04-20T11:00:19.131Z,36.59
2023-04-20T11:01:18.789Z,36.60
2023-04-20T11:02:18.896Z,36.74
2023-04-20T11:03:19.640Z,36.61
2023-04-20T11:04:19.428Z,36.69
2023-04-20T11:05:19.190Z,36.77
2023-04-20T11:06:19.030Z,36.72
2023-04-20T11:07:19.039Z,36.92
2023-04-20T11:08:19.029Z,36.98
2023-04-20T11:09:19.448Z,36.93
2023-04-20T11:10:19.136Z,37.01
2023-04-20T11:11:19.122Z,36.89
2023-04-20T11:12:19.034Z,37.08
2023-04-20T11:13:19.051Z,37.34
2023-04-20T11:14:19.041Z,37.37
2023-04-20T11:15:19.141Z,37.27
2023-04-20T11:16:19.129Z,37.33
2023-04-20T11:17:19.360Z,37.06
2023-04-20T11:18:19.278Z,37.45
2023-04-20T11:19:19.274Z,37.86
2023-04-20T11:20:19.229Z,37.67
2023-04-20T11:21:19.171Z,37.46
2023-04-20T11:22:19.638Z,37.26
2023-04-20T11:23:19.212Z,37.28
2023-04-20T11:24:19.216Z,37.28
2023-04-20T11:25:19.215Z,37.15
2023-04-20T11:26:19.212Z,36.91
2023-04-20T11:27:20.030Z,36.75
2023-04-20T11:28:19.261Z,36.75
2023-04-20T11:29:19.846Z,36.69
2023-04-20T11:30:19.244Z,36.62
2023-04-20T11:31:19.568Z,36.56
2023-04-20T11:32:19.854Z,36.58
2023-04-20T11:33:19.407Z,36.47
2023-04-20T11:34:19.284Z,36.51
2023-04-20T11:35:19.314Z,36.43
2023-04-20T11:36:19.357Z,36.38
2023-04-20T11:37:19.674Z,36.33
2023-04-20T11:38:19.340Z,36.32
2023-04-20T11:39:19.577Z,36.24
2023-04-20T11:40:19.390Z,36.31
2023-04-20T11:41:19.413Z,36.28
2023-04-20T11:42:19.492Z,36.23
2023-04-20T11:43:19.484Z,36.16
2023-04-20T11:44:19.477Z,36.16
2023-04-20T11:45:19.501Z,36.04
2023-04-20T11:46:19.651Z,35.99
2023-04-20T11:47:19.517Z,36.00
2023-04-20T11:48:19.532Z,36.01
2023-04-20T11:49:19.729Z,36.03
2023-04-20T11:50:19.670Z,36.01
2023-04-20T11:51:19.670Z,35.95
2023-04-20T11:52:19.815Z,35.96
2023-04-20T11:53:19.677Z,35.92
2023-04-20T11:54:19.734Z,35.86
2023-04-20T11:55:20.149Z,35.91
2023-04-20T11:56:19.776Z,35.88
2023-04-20T11:57:19.834Z,35.86
2023-04-20T11:58:19.861Z,35.79
2023-04-20T11:59:20.624Z,35.79
2023-04-20T12:00:19.911Z,35.76
2023-04-20T12:01:19.947Z,35.81
2023-04-20T12:02:20.112Z,35.78
2023-04-20T12:03:20.140Z,35.78
2023-04-20T12:04:20.525Z,35.76
2023-04-20T12:05:20.093Z,35.67
2023-04-20T12:06:20.077Z,35.68
2023-04-20T12:07:20.109Z,35.62
2023-04-20T12:08:20.190Z,35.65
2023-04-20T12:10:19.156Z,35.62
2023-04-20T12:11:20.151Z,35.57
2023-04-20T12:12:20.176Z,35.53
2023-04-20T12:13:20.213Z,35.57
2023-04-20T12:14:20.285Z,35.53
2023-04-20T12:15:20.674Z,35.56
2023-04-20T12:16:20.722Z,35.55
2023-04-20T12:17:20.440Z,35.57
2023-04-20T12:18:20.410Z,35.55
2023-04-20T12:19:20.660Z,35.53
2023-04-20T12:20:20.495Z,35.41
2023-04-20T12:21:20.536Z,35.45
2023-04-20T12:22:20.562Z,35.39
2023-04-20T12:23:20.608Z,35.36
2023-04-20T12:24:20.753Z,35.34
2023-04-20T12:25:20.678Z,35.32
2023-04-20T12:26:20.901Z,35.27
2023-04-20T12:27:20.776Z,35.24
2023-04-20T12:28:20.787Z,35.23
2023-04-20T12:29:21.141Z,35.15
2023-04-20T12:30:21.164Z,35.16
2023-04-20T12:31:20.947Z,35.12
2023-04-20T12:32:20.973Z,35.15
2023-04-20T12:33:21.168Z,35.12
2023-04-20T12:34:21.330Z,35.10
2023-04-20T12:35:20.988Z,35.10
2023-04-20T12:36:21.028Z,35.06
2023-04-20T12:37:21.054Z,35.02
2023-04-20T12:38:21.107Z,34.96
2023-04-20T12:39:21.151Z,34.45
2023-04-20T12:40:21.694Z,33.06
2023-04-20T12:41:21.266Z,32.28
2023-04-20T12:42:21.318Z,31.07
2023-04-20T12:43:21.376Z,31.03
2023-04-20T12:44:21.526Z,30.62
2023-04-20T12:45:21.498Z,30.18
2023-04-20T12:46:21.576Z,29.67
2023-04-20T12:47:21.547Z,29.61
2023-04-20T12:48:21.620Z,29.65
2023-04-20T12:49:21.592Z,29.64
2023-04-20T12:50:21.681Z,29.68
2023-04-20T12:51:21.642Z,29.71
2023-04-20T12:52:21.642Z,29.74
2023-04-20T12:53:21.674Z,29.89
2023-04-20T12:54:21.710Z,30.09
2023-04-20T12:55:21.757Z,31.28